East Putney, Vermont
Current Conditions -  °F | °C
As of 11:55 PM on Saturday 22 Nov 2014 (Local Time) from KEEN Reporting Station
Overcast Overcast  
Wind Chill: 37°   Ceiling: 2700
Heat Index: 37°   Visibility: 10mi
Dew Point: 19°   Wind: 0mph
Humidity: 48%   Direction: NA
Pressure: 30.05"   Gusts: NA
Location:  43.041°N, 72.534°W
Report Text: KEEN 230455Z AUTO 00000KT 10SM OVC027 03/M07 A3005 RMK AO1
Loading
Personal Weather Stations






























Interactive Weather Map New forecast layout! Learn more

10-Day Weather Forecast

Advertisements
Track Severe Weather on mobile